Shrewsbury, Vermont
Current Conditions -  °F | °C
As of 3:55 PM on Friday 31 Oct 2014 (Local Time) from KRUT Reporting Station
Overcast Overcast  
Wind Chill: 45°   Ceiling: 5000
Heat Index: 48°   Visibility: 10mi
Dew Point: 28°   Wind: 7mph
Humidity: 46%   Direction: 130°SE
Pressure: 29.96"   Gusts: NA
Location:  43.5432°N, 72.8545°W
Report Text: KRUT 311955Z 13006KT 10SM OVC050 09/M02 A2996 RMK AO1
Loading
Personal Weather Stations






























Interactive Weather Map
Tropical Storm Tracking
New forecast layout! Learn more

10-Day Weather Forecast

Advertisements
Track Severe Weather on mobile